sensor_id;sensor_type;location;lat;lon;timestamp;P1;durP1;ratioP1;P2;durP2;ratioP2
20417;SDS011;10368;51.436;6.774;2022-12-20T00:01:26;4.17;;;2.80;;
20417;SDS011;10368;51.436;6.774;2022-12-20T00:03:56;4.87;;;2.33;;
20417;SDS011;10368;51.436;6.774;2022-12-20T00:06:27;5.47;;;2.43;;
20417;SDS011;10368;51.436;6.774;2022-12-20T00:08:56;7.77;;;2.33;;
20417;SDS011;10368;51.436;6.774;2022-12-20T00:11:25;4.07;;;2.57;;
20417;SDS011;10368;51.436;6.774;2022-12-20T00:13:53;2.60;;;2.40;;
20417;SDS011;10368;51.436;6.774;2022-12-20T00:16:21;2.57;;;2.37;;
20417;SDS011;10368;51.436;6.774;2022-12-20T00:19:00;4.03;;;2.40;;
20417;SDS011;10368;51.436;6.774;2022-12-20T00:21:29;2.40;;;2.07;;
20417;SDS011;10368;51.436;6.774;2022-12-20T00:23:57;3.33;;;2.37;;
20417;SDS011;10368;51.436;6.774;2022-12-20T00:26:26;2.63;;;1.93;;
20417;SDS011;10368;51.436;6.774;2022-12-20T00:28:55;5.17;;;2.20;;
20417;SDS011;10368;51.436;6.774;2022-12-20T00:31:23;3.23;;;2.50;;
20417;SDS011;10368;51.436;6.774;2022-12-20T00:34:02;3.43;;;1.93;;
20417;SDS011;10368;51.436;6.774;2022-12-20T00:36:31;2.83;;;2.00;;
20417;SDS011;10368;51.436;6.774;2022-12-20T00:38:59;3.70;;;2.20;;
20417;SDS011;10368;51.436;6.774;2022-12-20T00:41:27;3.83;;;1.90;;
20417;SDS011;10368;51.436;6.774;2022-12-20T00:43:56;3.33;;;2.60;;
20417;SDS011;10368;51.436;6.774;2022-12-20T00:46:23;2.73;;;2.00;;
20417;SDS011;10368;51.436;6.774;2022-12-20T00:48:51;3.07;;;1.90;;
20417;SDS011;10368;51.436;6.774;2022-12-20T00:51:20;3.30;;;1.83;;
20417;SDS011;10368;51.436;6.774;2022-12-20T00:53:49;3.33;;;1.97;;
20417;SDS011;10368;51.436;6.774;2022-12-20T00:56:17;5.53;;;2.30;;
20417;SDS011;10368;51.436;6.774;2022-12-20T00:58:44;4.30;;;2.20;;
20417;SDS011;10368;51.436;6.774;2022-12-20T01:01:22;2.13;;;1.70;;
20417;SDS011;10368;51.436;6.774;2022-12-20T01:03:51;4.50;;;2.93;;
20417;SDS011;10368;51.436;6.774;2022-12-20T01:06:18;4.13;;;2.30;;
20417;SDS011;10368;51.436;6.774;2022-12-20T01:08:46;2.83;;;2.37;;
20417;SDS011;10368;51.436;6.774;2022-12-20T01:11:14;3.47;;;2.40;;
20417;SDS011;10368;51.436;6.774;2022-12-20T01:13:43;2.13;;;1.87;;
20417;SDS011;10368;51.436;6.774;2022-12-20T01:16:13;2.23;;;2.00;;
20417;SDS011;10368;51.436;6.774;2022-12-20T01:18:48;2.10;;;1.90;;
20417;SDS011;10368;51.436;6.774;2022-12-20T01:21:23;2.47;;;1.70;;
20417;SDS011;10368;51.436;6.774;2022-12-20T01:23:51;2.73;;;1.80;;
20417;SDS011;10368;51.436;6.774;2022-12-20T01:26:20;5.30;;;2.00;;
20417;SDS011;10368;51.436;6.774;2022-12-20T01:28:50;5.47;;;2.17;;
20417;SDS011;10368;51.436;6.774;2022-12-20T01:31:19;2.30;;;2.10;;
20417;SDS011;10368;51.436;6.774;2022-12-20T01:33:46;2.07;;;1.80;;
20417;SDS011;10368;51.436;6.774;2022-12-20T01:36:18;2.03;;;1.90;;
20417;SDS011;10368;51.436;6.774;2022-12-20T01:38:47;2.87;;;1.80;;
20417;SDS011;10368;51.436;6.774;2022-12-20T01:41:15;3.80;;;2.20;;
20417;SDS011;10368;51.436;6.774;2022-12-20T01:46:13;3.13;;;1.83;;
20417;SDS011;10368;51.436;6.774;2022-12-20T01:48:41;3.27;;;1.80;;
20417;SDS011;10368;51.436;6.774;2022-12-20T01:51:11;4.37;;;1.80;;
20417;SDS011;10368;51.436;6.774;2022-12-20T01:53:38;4.40;;;1.93;;
20417;SDS011;10368;51.436;6.774;2022-12-20T01:56:06;5.43;;;2.77;;
20417;SDS011;10368;51.436;6.774;2022-12-20T01:58:34;2.67;;;1.70;;
20417;SDS011;10368;51.436;6.774;2022-12-20T02:01:05;2.27;;;2.00;;
20417;SDS011;10368;51.436;6.774;2022-12-20T02:03:32;2.33;;;1.90;;
20417;SDS011;10368;51.436;6.774;2022-12-20T02:06:08;3.67;;;1.87;;
20417;SDS011;10368;51.436;6.774;2022-12-20T02:08:40;3.23;;;1.67;;
20417;SDS011;10368;51.436;6.774;2022-12-20T02:11:13;3.33;;;2.03;;
20417;SDS011;10368;51.436;6.774;2022-12-20T02:16:52;3.37;;;2.43;;
20417;SDS011;10368;51.436;6.774;2022-12-20T02:22:15;2.53;;;1.70;;
20417;SDS011;10368;51.436;6.774;2022-12-20T02:27:37;2.60;;;2.40;;
20417;SDS011;10368;51.436;6.774;2022-12-20T02:30:25;2.43;;;2.00;;
20417;SDS011;10368;51.436;6.774;2022-12-20T02:32:59;3.93;;;2.00;;
20417;SDS011;10368;51.436;6.774;2022-12-20T02:35:32;3.57;;;2.20;;
20417;SDS011;10368;51.436;6.774;2022-12-20T02:38:02;4.63;;;2.17;;
20417;SDS011;10368;51.436;6.774;2022-12-20T02:40:49;2.43;;;2.20;;
20417;SDS011;10368;51.436;6.774;2022-12-20T02:43:21;2.40;;;2.20;;
20417;SDS011;10368;51.436;6.774;2022-12-20T02:46:10;5.33;;;2.23;;
20417;SDS011;10368;51.436;6.774;2022-12-20T02:48:38;3.47;;;2.33;;
20417;SDS011;10368;51.436;6.774;2022-12-20T02:51:06;3.23;;;2.30;;
20417;SDS011;10368;51.436;6.774;2022-12-20T02:53:35;2.93;;;2.60;;
20417;SDS011;10368;51.436;6.774;2022-12-20T03:01:22;4.93;;;2.93;;
20417;SDS011;10368;51.436;6.774;2022-12-20T03:03:56;3.93;;;2.90;;
20417;SDS011;10368;51.436;6.774;2022-12-20T03:06:24;6.13;;;3.03;;
20417;SDS011;10368;51.436;6.774;2022-12-20T03:08:51;3.67;;;3.00;;
20417;SDS011;10368;51.436;6.774;2022-12-20T03:11:18;4.53;;;2.97;;
20417;SDS011;10368;51.436;6.774;2022-12-20T03:13:45;4.80;;;3.60;;
20417;SDS011;10368;51.436;6.774;2022-12-20T03:16:12;4.33;;;3.27;;
20417;SDS011;10368;51.436;6.774;2022-12-20T03:18:39;5.87;;;3.70;;
20417;SDS011;10368;51.436;6.774;2022-12-20T03:21:06;4.90;;;3.83;;
20417;SDS011;10368;51.436;6.774;2022-12-20T03:23:33;4.47;;;4.07;;
20417;SDS011;10368;51.436;6.774;2022-12-20T03:26:00;4.07;;;3.67;;
20417;SDS011;10368;51.436;6.774;2022-12-20T03:28:27;4.30;;;3.80;;
20417;SDS011;10368;51.436;6.774;2022-12-20T03:30:58;6.23;;;4.20;;
20417;SDS011;10368;51.436;6.774;2022-12-20T03:33:24;4.70;;;4.00;;
20417;SDS011;10368;51.436;6.774;2022-12-20T03:35:51;4.73;;;4.20;;
20417;SDS011;10368;51.436;6.774;2022-12-20T03:38:18;4.90;;;4.40;;
20417;SDS011;10368;51.436;6.774;2022-12-20T03:40:45;5.20;;;4.37;;
20417;SDS011;10368;51.436;6.774;2022-12-20T03:43:12;4.97;;;4.40;;
20417;SDS011;10368;51.436;6.774;2022-12-20T03:45:39;5.47;;;4.73;;
20417;SDS011;10368;51.436;6.774;2022-12-20T03:48:05;5.07;;;4.57;;
20417;SDS011;10368;51.436;6.774;2022-12-20T03:50:32;5.23;;;4.30;;
20417;SDS011;10368;51.436;6.774;2022-12-20T03:52:59;4.53;;;4.13;;
20417;SDS011;10368;51.436;6.774;2022-12-20T03:55:27;5.50;;;4.50;;
20417;SDS011;10368;51.436;6.774;2022-12-20T03:57:54;6.17;;;4.23;;
20417;SDS011;10368;51.436;6.774;2022-12-20T04:00:20;4.97;;;4.57;;
20417;SDS011;10368;51.436;6.774;2022-12-20T04:02:51;6.40;;;4.57;;
20417;SDS011;10368;51.436;6.774;2022-12-20T04:05:18;9.37;;;4.37;;
20417;SDS011;10368;51.436;6.774;2022-12-20T04:07:46;6.87;;;4.70;;
20417;SDS011;10368;51.436;6.774;2022-12-20T04:10:13;6.13;;;4.43;;
20417;SDS011;10368;51.436;6.774;2022-12-20T04:12:40;4.83;;;4.23;;
20417;SDS011;10368;51.436;6.774;2022-12-20T04:15:07;5.50;;;4.87;;
20417;SDS011;10368;51.436;6.774;2022-12-20T04:17:34;5.70;;;5.10;;
20417;SDS011;10368;51.436;6.774;2022-12-20T04:20:01;7.93;;;4.83;;
20417;SDS011;10368;51.436;6.774;2022-12-20T04:22:45;6.03;;;5.50;;
20417;SDS011;10368;51.436;6.774;2022-12-20T04:25:18;8.13;;;5.40;;
20417;SDS011;10368;51.436;6.774;2022-12-20T04:27:45;7.40;;;5.23;;
20417;SDS011;10368;51.436;6.774;2022-12-20T04:30:12;5.60;;;4.90;;
20417;SDS011;10368;51.436;6.774;2022-12-20T04:32:40;8.47;;;5.50;;
20417;SDS011;10368;51.436;6.774;2022-12-20T04:35:06;7.43;;;5.80;;
20417;SDS011;10368;51.436;6.774;2022-12-20T04:37:34;9.67;;;5.73;;
20417;SDS011;10368;51.436;6.774;2022-12-20T04:40:01;7.50;;;5.57;;
20417;SDS011;10368;51.436;6.774;2022-12-20T04:42:28;6.93;;;6.23;;
20417;SDS011;10368;51.436;6.774;2022-12-20T04:44:55;7.33;;;6.47;;
20417;SDS011;10368;51.436;6.774;2022-12-20T04:47:22;7.87;;;6.40;;
20417;SDS011;10368;51.436;6.774;2022-12-20T04:49:48;7.67;;;5.70;;
20417;SDS011;10368;51.436;6.774;2022-12-20T04:52:15;7.40;;;6.63;;
20417;SDS011;10368;51.436;6.774;2022-12-20T04:55:03;9.43;;;6.43;;
20417;SDS011;10368;51.436;6.774;2022-12-20T04:57:30;5.97;;;5.47;;
20417;SDS011;10368;51.436;6.774;2022-12-20T04:59:56;8.47;;;5.97;;
20417;SDS011;10368;51.436;6.774;2022-12-20T05:02:23;8.40;;;6.00;;
20417;SDS011;10368;51.436;6.774;2022-12-20T05:04:50;11.00;;;6.10;;
20417;SDS011;10368;51.436;6.774;2022-12-20T05:07:17;8.83;;;5.57;;
20417;SDS011;10368;51.436;6.774;2022-12-20T05:09:44;7.27;;;5.53;;
20417;SDS011;10368;51.436;6.774;2022-12-20T05:12:11;7.27;;;5.37;;
20417;SDS011;10368;51.436;6.774;2022-12-20T05:14:37;5.13;;;4.63;;
20417;SDS011;10368;51.436;6.774;2022-12-20T05:17:04;5.83;;;5.10;;
20417;SDS011;10368;51.436;6.774;2022-12-20T05:19:31;5.70;;;5.07;;
20417;SDS011;10368;51.436;6.774;2022-12-20T05:21:58;9.10;;;5.17;;
20417;SDS011;10368;51.436;6.774;2022-12-20T05:24:43;8.43;;;4.77;;
20417;SDS011;10368;51.436;6.774;2022-12-20T05:27:29;4.90;;;4.40;;
20417;SDS011;10368;51.436;6.774;2022-12-20T05:29:56;5.30;;;4.80;;
20417;SDS011;10368;51.436;6.774;2022-12-20T05:32:22;5.63;;;4.90;;
20417;SDS011;10368;51.436;6.774;2022-12-20T05:34:49;6.63;;;5.17;;
20417;SDS011;10368;51.436;6.774;2022-12-20T05:37:16;8.83;;;5.50;;
20417;SDS011;10368;51.436;6.774;2022-12-20T05:39:43;9.33;;;5.60;;
20417;SDS011;10368;51.436;6.774;2022-12-20T05:42:10;5.97;;;5.10;;
20417;SDS011;10368;51.436;6.774;2022-12-20T05:44:37;9.10;;;4.73;;
20417;SDS011;10368;51.436;6.774;2022-12-20T05:47:04;5.77;;;4.90;;
20417;SDS011;10368;51.436;6.774;2022-12-20T05:49:32;9.53;;;5.83;;
20417;SDS011;10368;51.436;6.774;2022-12-20T05:52:00;5.83;;;5.27;;
20417;SDS011;10368;51.436;6.774;2022-12-20T05:54:27;6.30;;;5.20;;
20417;SDS011;10368;51.436;6.774;2022-12-20T05:56:54;6.20;;;4.67;;
20417;SDS011;10368;51.436;6.774;2022-12-20T05:59:21;7.63;;;4.70;;
20417;SDS011;10368;51.436;6.774;2022-12-20T06:01:48;6.00;;;4.63;;
20417;SDS011;10368;51.436;6.774;2022-12-20T06:04:15;6.27;;;5.00;;
20417;SDS011;10368;51.436;6.774;2022-12-20T06:06:42;9.97;;;6.93;;
20417;SDS011;10368;51.436;6.774;2022-12-20T06:09:09;5.63;;;4.80;;
20417;SDS011;10368;51.436;6.774;2022-12-20T06:11:37;4.83;;;4.43;;
20417;SDS011;10368;51.436;6.774;2022-12-20T06:14:03;8.47;;;5.10;;
20417;SDS011;10368;51.436;6.774;2022-12-20T06:16:30;4.73;;;4.33;;
20417;SDS011;10368;51.436;6.774;2022-12-20T06:18:57;4.23;;;3.80;;
20417;SDS011;10368;51.436;6.774;2022-12-20T06:21:25;4.63;;;4.13;;
20417;SDS011;10368;51.436;6.774;2022-12-20T06:23:53;7.13;;;4.77;;
20417;SDS011;10368;51.436;6.774;2022-12-20T06:26:20;8.40;;;5.00;;
20417;SDS011;10368;51.436;6.774;2022-12-20T06:28:50;4.50;;;3.60;;
20417;SDS011;10368;51.436;6.774;2022-12-20T06:31:19;4.10;;;3.70;;
20417;SDS011;10368;51.436;6.774;2022-12-20T06:33:46;6.80;;;3.90;;
20417;SDS011;10368;51.436;6.774;2022-12-20T06:36:13;5.73;;;4.47;;
20417;SDS011;10368;51.436;6.774;2022-12-20T06:38:40;5.37;;;3.67;;
20417;SDS011;10368;51.436;6.774;2022-12-20T06:41:07;5.77;;;3.60;;
20417;SDS011;10368;51.436;6.774;2022-12-20T06:43:34;6.73;;;4.30;;
20417;SDS011;10368;51.436;6.774;2022-12-20T06:46:01;3.93;;;3.23;;
20417;SDS011;10368;51.436;6.774;2022-12-20T06:48:28;5.40;;;3.43;;
20417;SDS011;10368;51.436;6.774;2022-12-20T06:50:55;4.30;;;3.90;;
20417;SDS011;10368;51.436;6.774;2022-12-20T06:53:23;7.27;;;4.23;;
20417;SDS011;10368;51.436;6.774;2022-12-20T06:55:50;8.50;;;3.93;;
20417;SDS011;10368;51.436;6.774;2022-12-20T06:58:17;5.17;;;3.97;;
20417;SDS011;10368;51.436;6.774;2022-12-20T07:00:45;5.23;;;3.10;;
20417;SDS011;10368;51.436;6.774;2022-12-20T07:03:12;11.07;;;8.70;;
20417;SDS011;10368;51.436;6.774;2022-12-20T07:05:39;4.40;;;3.63;;
20417;SDS011;10368;51.436;6.774;2022-12-20T07:08:07;5.20;;;3.80;;
20417;SDS011;10368;51.436;6.774;2022-12-20T07:10:35;6.53;;;3.57;;
20417;SDS011;10368;51.436;6.774;2022-12-20T07:13:02;4.37;;;3.97;;
20417;SDS011;10368;51.436;6.774;2022-12-20T07:15:29;5.03;;;4.03;;
20417;SDS011;10368;51.436;6.774;2022-12-20T07:17:57;9.97;;;3.90;;
20417;SDS011;10368;51.436;6.774;2022-12-20T07:20:24;3.87;;;3.23;;
20417;SDS011;10368;51.436;6.774;2022-12-20T07:22:51;3.77;;;3.10;;
20417;SDS011;10368;51.436;6.774;2022-12-20T07:25:18;4.13;;;3.10;;
20417;SDS011;10368;51.436;6.774;2022-12-20T07:27:48;3.83;;;2.77;;
20417;SDS011;10368;51.436;6.774;2022-12-20T07:30:15;5.07;;;2.67;;
20417;SDS011;10368;51.436;6.774;2022-12-20T07:32:44;6.60;;;3.10;;
20417;SDS011;10368;51.436;6.774;2022-12-20T07:35:11;4.03;;;3.30;;
20417;SDS011;10368;51.436;6.774;2022-12-20T07:37:40;4.23;;;3.40;;
20417;SDS011;10368;51.436;6.774;2022-12-20T07:40:07;4.53;;;3.60;;
20417;SDS011;10368;51.436;6.774;2022-12-20T07:42:36;4.63;;;3.27;;
20417;SDS011;10368;51.436;6.774;2022-12-20T07:45:11;6.13;;;3.47;;
20417;SDS011;10368;51.436;6.774;2022-12-20T07:47:38;4.77;;;3.60;;
20417;SDS011;10368;51.436;6.774;2022-12-20T07:50:05;4.60;;;3.27;;
20417;SDS011;10368;51.436;6.774;2022-12-20T07:52:33;5.13;;;2.93;;
20417;SDS011;10368;51.436;6.774;2022-12-20T07:55:02;3.87;;;2.73;;
20417;SDS011;10368;51.436;6.774;2022-12-20T07:57:42;5.43;;;2.80;;
20417;SDS011;10368;51.436;6.774;2022-12-20T08:00:14;3.37;;;3.07;;
20417;SDS011;10368;51.436;6.774;2022-12-20T08:02:48;5.10;;;3.67;;
20417;SDS011;10368;51.436;6.774;2022-12-20T08:05:22;4.47;;;3.17;;
20417;SDS011;10368;51.436;6.774;2022-12-20T08:07:49;3.00;;;2.70;;
20417;SDS011;10368;51.436;6.774;2022-12-20T08:10:24;3.20;;;2.90;;
20417;SDS011;10368;51.436;6.774;2022-12-20T08:12:51;3.20;;;2.63;;
20417;SDS011;10368;51.436;6.774;2022-12-20T08:15:18;4.43;;;3.03;;
20417;SDS011;10368;51.436;6.774;2022-12-20T08:17:48;5.43;;;3.30;;
20417;SDS011;10368;51.436;6.774;2022-12-20T08:20:15;3.77;;;3.30;;
20417;SDS011;10368;51.436;6.774;2022-12-20T08:22:43;5.77;;;3.37;;
20417;SDS011;10368;51.436;6.774;2022-12-20T08:25:10;3.33;;;3.03;;
20417;SDS011;10368;51.436;6.774;2022-12-20T08:27:37;4.20;;;3.20;;
20417;SDS011;10368;51.436;6.774;2022-12-20T08:30:04;4.83;;;3.00;;
20417;SDS011;10368;51.436;6.774;2022-12-20T08:32:33;2.70;;;2.50;;
20417;SDS011;10368;51.436;6.774;2022-12-20T08:35:02;4.00;;;2.67;;
20417;SDS011;10368;51.436;6.774;2022-12-20T08:37:29;5.03;;;3.63;;
20417;SDS011;10368;51.436;6.774;2022-12-20T08:39:56;5.20;;;3.17;;
20417;SDS011;10368;51.436;6.774;2022-12-20T08:42:23;4.03;;;2.67;;
20417;SDS011;10368;51.436;6.774;2022-12-20T08:44:57;3.53;;;2.50;;
20417;SDS011;10368;51.436;6.774;2022-12-20T08:47:28;5.77;;;3.23;;
20417;SDS011;10368;51.436;6.774;2022-12-20T08:49:55;7.43;;;2.60;;
20417;SDS011;10368;51.436;6.774;2022-12-20T08:52:22;4.63;;;3.53;;
20417;SDS011;10368;51.436;6.774;2022-12-20T08:54:49;3.37;;;2.57;;
20417;SDS011;10368;51.436;6.774;2022-12-20T08:57:17;3.37;;;2.63;;
20417;SDS011;10368;51.436;6.774;2022-12-20T08:59:44;3.27;;;2.93;;
20417;SDS011;10368;51.436;6.774;2022-12-20T09:02:11;2.40;;;2.20;;
20417;SDS011;10368;51.436;6.774;2022-12-20T09:04:38;4.40;;;2.77;;
20417;SDS011;10368;51.436;6.774;2022-12-20T09:07:05;3.40;;;3.07;;
20417;SDS011;10368;51.436;6.774;2022-12-20T09:09:32;3.33;;;2.90;;
20417;SDS011;10368;51.436;6.774;2022-12-20T09:11:59;3.30;;;2.90;;
20417;SDS011;10368;51.436;6.774;2022-12-20T09:14:26;4.87;;;2.70;;
20417;SDS011;10368;51.436;6.774;2022-12-20T09:16:52;3.80;;;3.10;;
20417;SDS011;10368;51.436;6.774;2022-12-20T09:19:19;3.93;;;2.80;;
20417;SDS011;10368;51.436;6.774;2022-12-20T09:21:46;3.67;;;2.70;;
20417;SDS011;10368;51.436;6.774;2022-12-20T09:24:13;3.10;;;2.80;;
20417;SDS011;10368;51.436;6.774;2022-12-20T09:26:40;3.33;;;3.03;;
20417;SDS011;10368;51.436;6.774;2022-12-20T09:29:10;3.07;;;2.57;;
20417;SDS011;10368;51.436;6.774;2022-12-20T09:31:37;3.03;;;2.30;;
20417;SDS011;10368;51.436;6.774;2022-12-20T09:34:04;4.00;;;3.07;;
20417;SDS011;10368;51.436;6.774;2022-12-20T09:36:31;7.40;;;3.47;;
20417;SDS011;10368;51.436;6.774;2022-12-20T09:38:58;3.50;;;2.90;;
20417;SDS011;10368;51.436;6.774;2022-12-20T09:41:31;3.90;;;3.47;;
20417;SDS011;10368;51.436;6.774;2022-12-20T09:46:55;3.50;;;3.17;;
20417;SDS011;10368;51.436;6.774;2022-12-20T09:49:35;6.13;;;3.00;;
20417;SDS011;10368;51.436;6.774;2022-12-20T10:00:19;6.80;;;3.40;;
20417;SDS011;10368;51.436;6.774;2022-12-20T10:02:46;4.07;;;3.03;;
20417;SDS011;10368;51.436;6.774;2022-12-20T10:05:50;5.73;;;3.23;;
20417;SDS011;10368;51.436;6.774;2022-12-20T10:16:39;3.37;;;2.67;;
20417;SDS011;10368;51.436;6.774;2022-12-20T10:24:28;4.67;;;2.90;;
20417;SDS011;10368;51.436;6.774;2022-12-20T10:26:57;5.17;;;3.43;;
20417;SDS011;10368;51.436;6.774;2022-12-20T10:29:41;4.57;;;3.47;;
20417;SDS011;10368;51.436;6.774;2022-12-20T10:32:12;4.00;;;3.17;;
20417;SDS011;10368;51.436;6.774;2022-12-20T10:37:59;5.07;;;3.57;;
20417;SDS011;10368;51.436;6.774;2022-12-20T10:40:38;4.60;;;2.80;;
20417;SDS011;10368;51.436;6.774;2022-12-20T10:43:27;4.83;;;2.83;;
20417;SDS011;10368;51.436;6.774;2022-12-20T10:46:07;2.77;;;2.57;;
20417;SDS011;10368;51.436;6.774;2022-12-20T10:48:36;3.00;;;2.50;;
20417;SDS011;10368;51.436;6.774;2022-12-20T10:59:30;6.50;;;4.73;;
20417;SDS011;10368;51.436;6.774;2022-12-20T11:01:42;5.33;;;2.83;;
20417;SDS011;10368;51.436;6.774;2022-12-20T11:04:27;4.77;;;2.80;;
20417;SDS011;10368;51.436;6.774;2022-12-20T11:07:00;3.70;;;2.87;;
20417;SDS011;10368;51.436;6.774;2022-12-20T11:09:32;3.90;;;2.87;;
20417;SDS011;10368;51.436;6.774;2022-12-20T11:12:14;3.27;;;2.77;;
20417;SDS011;10368;51.436;6.774;2022-12-20T11:14:45;5.67;;;3.20;;
20417;SDS011;10368;51.436;6.774;2022-12-20T11:27:43;4.87;;;3.23;;
20417;SDS011;10368;51.436;6.774;2022-12-20T12:00:32;3.83;;;3.47;;
20417;SDS011;10368;51.436;6.774;2022-12-20T12:05:51;3.83;;;3.13;;
20417;SDS011;10368;51.436;6.774;2022-12-20T12:09:05;6.67;;;3.90;;
20417;SDS011;10368;51.436;6.774;2022-12-20T12:11:32;4.53;;;3.30;;
20417;SDS011;10368;51.436;6.774;2022-12-20T12:17:56;5.07;;;3.57;;
20417;SDS011;10368;51.436;6.774;2022-12-20T12:20:45;4.23;;;3.73;;
20417;SDS011;10368;51.436;6.774;2022-12-20T12:25:58;7.30;;;3.27;;
20417;SDS011;10368;51.436;6.774;2022-12-20T12:28:52;3.73;;;3.37;;
20417;SDS011;10368;51.436;6.774;2022-12-20T12:31:44;5.27;;;3.80;;
20417;SDS011;10368;51.436;6.774;2022-12-20T12:34:29;3.57;;;3.27;;
20417;SDS011;10368;51.436;6.774;2022-12-20T12:43:25;5.50;;;3.53;;
20417;SDS011;10368;51.436;6.774;2022-12-20T12:48:24;4.97;;;2.97;;
20417;SDS011;10368;51.436;6.774;2022-12-20T12:51:07;6.43;;;3.40;;
20417;SDS011;10368;51.436;6.774;2022-12-20T12:53:36;5.17;;;3.10;;
20417;SDS011;10368;51.436;6.774;2022-12-20T13:01:46;7.83;;;5.77;;
20417;SDS011;10368;51.436;6.774;2022-12-20T13:09:18;5.63;;;3.70;;
20417;SDS011;10368;51.436;6.774;2022-12-20T13:11:48;5.80;;;3.33;;
20417;SDS011;10368;51.436;6.774;2022-12-20T13:19:52;6.40;;;4.53;;
20417;SDS011;10368;51.436;6.774;2022-12-20T13:32:57;8.07;;;5.20;;
20417;SDS011;10368;51.436;6.774;2022-12-20T13:40:34;6.80;;;4.73;;
20417;SDS011;10368;51.436;6.774;2022-12-20T13:45:48;10.43;;;6.27;;
20417;SDS011;10368;51.436;6.774;2022-12-20T13:51:23;14.23;;;6.93;;
20417;SDS011;10368;51.436;6.774;2022-12-20T13:53:58;12.97;;;5.93;;
20417;SDS011;10368;51.436;6.774;2022-12-20T13:59:03;8.87;;;6.17;;
20417;SDS011;10368;51.436;6.774;2022-12-20T14:01:32;8.60;;;5.83;;
20417;SDS011;10368;51.436;6.774;2022-12-20T14:04:05;9.57;;;5.50;;
20417;SDS011;10368;51.436;6.774;2022-12-20T14:06:32;9.30;;;4.73;;
20417;SDS011;10368;51.436;6.774;2022-12-20T14:09:00;6.50;;;4.63;;
20417;SDS011;10368;51.436;6.774;2022-12-20T14:11:27;6.80;;;4.33;;
20417;SDS011;10368;51.436;6.774;2022-12-20T14:16:29;7.23;;;4.13;;
20417;SDS011;10368;51.436;6.774;2022-12-20T14:21:28;6.03;;;4.27;;
20417;SDS011;10368;51.436;6.774;2022-12-20T14:23:56;9.33;;;4.90;;
20417;SDS011;10368;51.436;6.774;2022-12-20T14:26:29;12.77;;;4.87;;
20417;SDS011;10368;51.436;6.774;2022-12-20T14:29:09;7.07;;;4.20;;
20417;SDS011;10368;51.436;6.774;2022-12-20T14:31:39;10.27;;;4.53;;
20417;SDS011;10368;51.436;6.774;2022-12-20T14:36:42;5.90;;;4.57;;
20417;SDS011;10368;51.436;6.774;2022-12-20T14:42:01;6.77;;;4.80;;
20417;SDS011;10368;51.436;6.774;2022-12-20T14:44:34;13.10;;;4.67;;
20417;SDS011;10368;51.436;6.774;2022-12-20T14:47:15;16.70;;;5.10;;
20417;SDS011;10368;51.436;6.774;2022-12-20T14:50:00;10.23;;;5.07;;
20417;SDS011;10368;51.436;6.774;2022-12-20T14:54:58;9.27;;;5.43;;
20417;SDS011;10368;51.436;6.774;2022-12-20T15:18:48;9.20;;;5.80;;
20417;SDS011;10368;51.436;6.774;2022-12-20T15:23:50;6.37;;;5.00;;
20417;SDS011;10368;51.436;6.774;2022-12-20T15:26:18;9.27;;;5.70;;
20417;SDS011;10368;51.436;6.774;2022-12-20T15:28:48;10.37;;;5.80;;
20417;SDS011;10368;51.436;6.774;2022-12-20T15:31:16;6.67;;;5.27;;
20417;SDS011;10368;51.436;6.774;2022-12-20T15:33:44;10.73;;;6.17;;
20417;SDS011;10368;51.436;6.774;2022-12-20T15:36:12;11.53;;;5.77;;
20417;SDS011;10368;51.436;6.774;2022-12-20T15:38:41;8.17;;;6.00;;
20417;SDS011;10368;51.436;6.774;2022-12-20T15:41:29;16.77;;;9.70;;
20417;SDS011;10368;51.436;6.774;2022-12-20T15:44:00;10.65;;;6.65;;
20417;SDS011;10368;51.436;6.774;2022-12-20T15:46:31;8.87;;;5.67;;
20417;SDS011;10368;51.436;6.774;2022-12-20T15:48:58;8.17;;;5.00;;
20417;SDS011;10368;51.436;6.774;2022-12-20T15:51:32;11.60;;;6.97;;
20417;SDS011;10368;51.436;6.774;2022-12-20T15:54:03;7.67;;;5.67;;
20417;SDS011;10368;51.436;6.774;2022-12-20T15:56:33;10.00;;;5.53;;
20417;SDS011;10368;51.436;6.774;2022-12-20T15:58:59;6.63;;;5.77;;
20417;SDS011;10368;51.436;6.774;2022-12-20T16:01:43;9.53;;;5.50;;
20417;SDS011;10368;51.436;6.774;2022-12-20T16:04:22;9.57;;;5.23;;
20417;SDS011;10368;51.436;6.774;2022-12-20T16:07:04;7.37;;;5.50;;
20417;SDS011;10368;51.436;6.774;2022-12-20T16:09:37;8.40;;;5.40;;
20417;SDS011;10368;51.436;6.774;2022-12-20T16:12:10;8.73;;;6.07;;
20417;SDS011;10368;51.436;6.774;2022-12-20T16:14:43;7.57;;;5.97;;
20417;SDS011;10368;51.436;6.774;2022-12-20T16:17:13;7.40;;;5.37;;
20417;SDS011;10368;51.436;6.774;2022-12-20T16:19:41;7.77;;;5.60;;
20417;SDS011;10368;51.436;6.774;2022-12-20T16:22:13;7.70;;;6.03;;
20417;SDS011;10368;51.436;6.774;2022-12-20T16:24:42;9.93;;;5.77;;
20417;SDS011;10368;51.436;6.774;2022-12-20T16:27:13;7.67;;;5.83;;
20417;SDS011;10368;51.436;6.774;2022-12-20T16:29:40;8.97;;;6.80;;
20417;SDS011;10368;51.436;6.774;2022-12-20T16:32:10;10.63;;;6.43;;
20417;SDS011;10368;51.436;6.774;2022-12-20T16:34:40;5.57;;;5.03;;
20417;SDS011;10368;51.436;6.774;2022-12-20T16:37:07;6.17;;;5.23;;
20417;SDS011;10368;51.436;6.774;2022-12-20T16:39:34;6.70;;;5.97;;
20417;SDS011;10368;51.436;6.774;2022-12-20T16:42:00;10.57;;;5.17;;
20417;SDS011;10368;51.436;6.774;2022-12-20T16:44:27;8.97;;;5.43;;
20417;SDS011;10368;51.436;6.774;2022-12-20T16:46:54;7.80;;;5.47;;
20417;SDS011;10368;51.436;6.774;2022-12-20T16:49:21;7.47;;;5.37;;
20417;SDS011;10368;51.436;6.774;2022-12-20T16:51:48;11.83;;;5.60;;
20417;SDS011;10368;51.436;6.774;2022-12-20T16:54:16;6.97;;;5.17;;
20417;SDS011;10368;51.436;6.774;2022-12-20T16:56:49;9.57;;;5.23;;
20417;SDS011;10368;51.436;6.774;2022-12-20T16:59:23;10.57;;;5.53;;
20417;SDS011;10368;51.436;6.774;2022-12-20T17:01:51;8.53;;;5.33;;
20417;SDS011;10368;51.436;6.774;2022-12-20T17:04:22;10.37;;;6.77;;
20417;SDS011;10368;51.436;6.774;2022-12-20T17:07:08;6.87;;;6.00;;
20417;SDS011;10368;51.436;6.774;2022-12-20T17:10:07;12.90;;;7.60;;
20417;SDS011;10368;51.436;6.774;2022-12-20T17:12:35;8.13;;;5.80;;
20417;SDS011;10368;51.436;6.774;2022-12-20T17:15:02;7.23;;;5.90;;
20417;SDS011;10368;51.436;6.774;2022-12-20T17:17:30;9.43;;;5.50;;
20417;SDS011;10368;51.436;6.774;2022-12-20T17:19:56;9.57;;;6.23;;
20417;SDS011;10368;51.436;6.774;2022-12-20T17:22:24;8.33;;;5.17;;
20417;SDS011;10368;51.436;6.774;2022-12-20T17:25:32;13.33;;;6.17;;
20417;SDS011;10368;51.436;6.774;2022-12-20T17:27:58;10.60;;;5.93;;
20417;SDS011;10368;51.436;6.774;2022-12-20T17:30:24;16.30;;;9.63;;
20417;SDS011;10368;51.436;6.774;2022-12-20T17:32:52;14.13;;;9.57;;
20417;SDS011;10368;51.436;6.774;2022-12-20T17:35:21;8.67;;;6.53;;
20417;SDS011;10368;51.436;6.774;2022-12-20T17:37:50;12.70;;;8.67;;
20417;SDS011;10368;51.436;6.774;2022-12-20T17:40:21;8.60;;;7.17;;
20417;SDS011;10368;51.436;6.774;2022-12-20T17:42:49;19.37;;;11.93;;
20417;SDS011;10368;51.436;6.774;2022-12-20T17:45:21;11.10;;;7.73;;
20417;SDS011;10368;51.436;6.774;2022-12-20T17:47:56;14.67;;;8.53;;
20417;SDS011;10368;51.436;6.774;2022-12-20T17:50:23;11.20;;;7.50;;
20417;SDS011;10368;51.436;6.774;2022-12-20T17:52:52;15.97;;;10.77;;
20417;SDS011;10368;51.436;6.774;2022-12-20T17:57:48;11.10;;;7.20;;
20417;SDS011;10368;51.436;6.774;2022-12-20T18:02:45;10.37;;;5.90;;
20417;SDS011;10368;51.436;6.774;2022-12-20T18:05:12;13.10;;;6.60;;
20417;SDS011;10368;51.436;6.774;2022-12-20T18:07:40;20.60;;;10.67;;
20417;SDS011;10368;51.436;6.774;2022-12-20T18:10:07;13.90;;;8.03;;
20417;SDS011;10368;51.436;6.774;2022-12-20T18:12:35;10.73;;;7.17;;
20417;SDS011;10368;51.436;6.774;2022-12-20T18:15:03;10.83;;;6.03;;
20417;SDS011;10368;51.436;6.774;2022-12-20T18:17:32;7.80;;;6.27;;